sensor_id;sensor_type;location;lat;lon;timestamp;P1;durP1;ratioP1;P2;durP2;ratioP2
63350;SDS011;74263;51.058;17.040;2024-03-07T00:02:32;55.88;;;24.85;;
63350;SDS011;74263;51.058;17.040;2024-03-07T00:07:33;54.72;;;25.83;;
63350;SDS011;74263;51.058;17.040;2024-03-07T00:12:36;55.07;;;26.37;;
63350;SDS011;74263;51.058;17.040;2024-03-07T00:17:38;57.33;;;26.38;;
63350;SDS011;74263;51.058;17.040;2024-03-07T00:22:41;54.85;;;25.67;;
63350;SDS011;74263;51.058;17.040;2024-03-07T00:27:42;53.90;;;25.97;;
63350;SDS011;74263;51.058;17.040;2024-03-07T00:32:44;51.47;;;24.80;;
63350;SDS011;74263;51.058;17.040;2024-03-07T00:37:46;52.47;;;24.40;;
63350;SDS011;74263;51.058;17.040;2024-03-07T00:42:48;50.53;;;24.65;;
63350;SDS011;74263;51.058;17.040;2024-03-07T00:47:50;55.33;;;25.30;;
63350;SDS011;74263;51.058;17.040;2024-03-07T00:52:52;54.57;;;25.77;;
63350;SDS011;74263;51.058;17.040;2024-03-07T00:57:54;54.45;;;25.10;;
63350;SDS011;74263;51.058;17.040;2024-03-07T01:02:56;48.78;;;25.17;;
63350;SDS011;74263;51.058;17.040;2024-03-07T01:07:58;47.53;;;23.60;;
63350;SDS011;74263;51.058;17.040;2024-03-07T01:12:59;50.88;;;23.40;;
63350;SDS011;74263;51.058;17.040;2024-03-07T01:18:01;47.35;;;23.45;;
63350;SDS011;74263;51.058;17.040;2024-03-07T01:23:03;48.27;;;23.57;;
63350;SDS011;74263;51.058;17.040;2024-03-07T01:28:05;46.13;;;22.35;;
63350;SDS011;74263;51.058;17.040;2024-03-07T01:33:07;43.08;;;21.80;;
63350;SDS011;74263;51.058;17.040;2024-03-07T01:38:09;45.97;;;22.70;;
63350;SDS011;74263;51.058;17.040;2024-03-07T01:43:11;49.70;;;23.10;;
63350;SDS011;74263;51.058;17.040;2024-03-07T01:48:14;48.00;;;22.60;;
63350;SDS011;74263;51.058;17.040;2024-03-07T01:53:18;45.63;;;22.00;;
63350;SDS011;74263;51.058;17.040;2024-03-07T01:58:20;43.60;;;23.20;;
63350;SDS011;74263;51.058;17.040;2024-03-07T02:03:22;47.40;;;23.50;;
63350;SDS011;74263;51.058;17.040;2024-03-07T02:08:24;45.50;;;22.20;;
63350;SDS011;74263;51.058;17.040;2024-03-07T02:13:26;50.00;;;23.60;;
63350;SDS011;74263;51.058;17.040;2024-03-07T02:18:28;41.93;;;21.00;;
63350;SDS011;74263;51.058;17.040;2024-03-07T02:23:30;49.60;;;23.35;;
63350;SDS011;74263;51.058;17.040;2024-03-07T02:28:32;47.03;;;22.30;;
63350;SDS011;74263;51.058;17.040;2024-03-07T02:33:34;45.03;;;22.13;;
63350;SDS011;74263;51.058;17.040;2024-03-07T02:38:35;47.95;;;22.35;;
63350;SDS011;74263;51.058;17.040;2024-03-07T02:43:37;40.03;;;20.25;;
63350;SDS011;74263;51.058;17.040;2024-03-07T02:48:39;42.50;;;21.63;;
63350;SDS011;74263;51.058;17.040;2024-03-07T02:53:41;47.63;;;21.45;;
63350;SDS011;74263;51.058;17.040;2024-03-07T02:58:43;45.58;;;21.42;;
63350;SDS011;74263;51.058;17.040;2024-03-07T03:03:44;47.90;;;21.23;;
63350;SDS011;74263;51.058;17.040;2024-03-07T03:08:46;45.63;;;20.77;;
63350;SDS011;74263;51.058;17.040;2024-03-07T03:13:48;45.57;;;20.63;;
63350;SDS011;74263;51.058;17.040;2024-03-07T03:18:50;39.80;;;20.17;;
63350;SDS011;74263;51.058;17.040;2024-03-07T03:23:52;45.28;;;20.77;;
63350;SDS011;74263;51.058;17.040;2024-03-07T03:28:53;41.65;;;20.85;;
63350;SDS011;74263;51.058;17.040;2024-03-07T03:33:55;38.95;;;19.75;;
63350;SDS011;74263;51.058;17.040;2024-03-07T03:38:57;43.53;;;19.95;;
63350;SDS011;74263;51.058;17.040;2024-03-07T03:43:58;42.73;;;22.27;;
63350;SDS011;74263;51.058;17.040;2024-03-07T03:49:02;45.20;;;21.25;;
63350;SDS011;74263;51.058;17.040;2024-03-07T03:54:04;36.40;;;18.97;;
63350;SDS011;74263;51.058;17.040;2024-03-07T03:59:06;41.08;;;20.27;;
63350;SDS011;74263;51.058;17.040;2024-03-07T04:04:07;46.15;;;19.60;;
63350;SDS011;74263;51.058;17.040;2024-03-07T04:09:09;44.03;;;21.88;;
63350;SDS011;74263;51.058;17.040;2024-03-07T04:14:11;41.80;;;19.88;;
63350;SDS011;74263;51.058;17.040;2024-03-07T04:19:13;43.70;;;21.17;;
63350;SDS011;74263;51.058;17.040;2024-03-07T04:24:14;45.83;;;21.33;;
63350;SDS011;74263;51.058;17.040;2024-03-07T04:29:16;44.85;;;21.25;;
63350;SDS011;74263;51.058;17.040;2024-03-07T04:34:18;42.72;;;21.40;;
63350;SDS011;74263;51.058;17.040;2024-03-07T04:39:19;44.67;;;20.95;;
63350;SDS011;74263;51.058;17.040;2024-03-07T04:44:21;43.65;;;21.60;;
63350;SDS011;74263;51.058;17.040;2024-03-07T04:49:23;45.95;;;21.42;;
63350;SDS011;74263;51.058;17.040;2024-03-07T04:54:26;43.58;;;21.92;;
63350;SDS011;74263;51.058;17.040;2024-03-07T04:59:27;45.87;;;22.30;;
63350;SDS011;74263;51.058;17.040;2024-03-07T05:04:29;44.88;;;21.65;;
63350;SDS011;74263;51.058;17.040;2024-03-07T05:09:31;44.33;;;20.98;;
63350;SDS011;74263;51.058;17.040;2024-03-07T05:14:32;47.08;;;22.60;;
63350;SDS011;74263;51.058;17.040;2024-03-07T05:19:34;53.17;;;22.90;;
63350;SDS011;74263;51.058;17.040;2024-03-07T05:24:36;46.00;;;21.37;;
63350;SDS011;74263;51.058;17.040;2024-03-07T05:29:38;43.63;;;23.25;;
63350;SDS011;74263;51.058;17.040;2024-03-07T05:34:40;44.10;;;21.07;;
63350;SDS011;74263;51.058;17.040;2024-03-07T05:39:42;45.08;;;20.83;;
63350;SDS011;74263;51.058;17.040;2024-03-07T05:44:44;51.15;;;21.95;;
63350;SDS011;74263;51.058;17.040;2024-03-07T05:49:46;44.92;;;22.15;;
63350;SDS011;74263;51.058;17.040;2024-03-07T05:54:48;46.60;;;22.05;;
63350;SDS011;74263;51.058;17.040;2024-03-07T05:59:50;39.70;;;19.70;;
63350;SDS011;74263;51.058;17.040;2024-03-07T06:04:53;41.80;;;20.73;;
63350;SDS011;74263;51.058;17.040;2024-03-07T06:09:55;41.65;;;21.05;;
63350;SDS011;74263;51.058;17.040;2024-03-07T06:14:57;44.13;;;21.60;;
63350;SDS011;74263;51.058;17.040;2024-03-07T06:19:59;39.42;;;20.08;;
63350;SDS011;74263;51.058;17.040;2024-03-07T06:25:00;44.78;;;21.27;;
63350;SDS011;74263;51.058;17.040;2024-03-07T06:30:02;39.88;;;20.77;;
63350;SDS011;74263;51.058;17.040;2024-03-07T06:35:04;39.90;;;18.85;;
63350;SDS011;74263;51.058;17.040;2024-03-07T06:40:07;39.50;;;19.38;;
63350;SDS011;74263;51.058;17.040;2024-03-07T06:45:09;36.83;;;19.37;;
63350;SDS011;74263;51.058;17.040;2024-03-07T06:50:10;36.25;;;18.20;;
63350;SDS011;74263;51.058;17.040;2024-03-07T06:55:23;37.20;;;19.10;;
63350;SDS011;74263;51.058;17.040;2024-03-07T07:00:25;37.47;;;17.38;;
63350;SDS011;74263;51.058;17.040;2024-03-07T07:05:27;37.55;;;18.75;;
63350;SDS011;74263;51.058;17.040;2024-03-07T07:10:29;34.72;;;17.63;;
63350;SDS011;74263;51.058;17.040;2024-03-07T07:15:30;40.33;;;20.17;;
63350;SDS011;74263;51.058;17.040;2024-03-07T07:20:33;42.45;;;19.63;;
63350;SDS011;74263;51.058;17.040;2024-03-07T07:25:35;38.33;;;18.17;;
63350;SDS011;74263;51.058;17.040;2024-03-07T07:30:36;39.83;;;21.08;;
63350;SDS011;74263;51.058;17.040;2024-03-07T07:35:38;37.45;;;19.02;;
63350;SDS011;74263;51.058;17.040;2024-03-07T07:40:40;39.15;;;18.35;;
63350;SDS011;74263;51.058;17.040;2024-03-07T07:45:41;39.08;;;18.05;;
63350;SDS011;74263;51.058;17.040;2024-03-07T07:50:43;36.08;;;18.67;;
63350;SDS011;74263;51.058;17.040;2024-03-07T07:55:45;38.90;;;18.80;;
63350;SDS011;74263;51.058;17.040;2024-03-07T08:00:47;40.58;;;19.85;;
63350;SDS011;74263;51.058;17.040;2024-03-07T08:05:48;39.20;;;20.25;;
63350;SDS011;74263;51.058;17.040;2024-03-07T08:10:50;38.85;;;19.02;;
63350;SDS011;74263;51.058;17.040;2024-03-07T08:15:52;34.58;;;18.27;;
63350;SDS011;74263;51.058;17.040;2024-03-07T08:20:53;37.80;;;18.90;;
63350;SDS011;74263;51.058;17.040;2024-03-07T08:25:57;37.38;;;18.98;;
63350;SDS011;74263;51.058;17.040;2024-03-07T08:30:59;36.60;;;19.00;;
63350;SDS011;74263;51.058;17.040;2024-03-07T08:36:00;41.05;;;18.15;;
63350;SDS011;74263;51.058;17.040;2024-03-07T08:41:02;33.43;;;16.20;;
63350;SDS011;74263;51.058;17.040;2024-03-07T08:46:04;33.10;;;17.20;;
63350;SDS011;74263;51.058;17.040;2024-03-07T08:51:06;30.60;;;17.83;;
63350;SDS011;74263;51.058;17.040;2024-03-07T08:56:08;47.97;;;18.33;;
63350;SDS011;74263;51.058;17.040;2024-03-07T09:01:09;38.58;;;18.33;;
63350;SDS011;74263;51.058;17.040;2024-03-07T09:06:11;39.75;;;18.65;;
63350;SDS011;74263;51.058;17.040;2024-03-07T09:11:13;40.47;;;18.27;;
63350;SDS011;74263;51.058;17.040;2024-03-07T09:16:14;32.70;;;16.92;;
63350;SDS011;74263;51.058;17.040;2024-03-07T09:21:16;38.42;;;18.60;;
63350;SDS011;74263;51.058;17.040;2024-03-07T09:26:18;36.45;;;18.85;;
63350;SDS011;74263;51.058;17.040;2024-03-07T09:31:20;40.28;;;17.58;;
63350;SDS011;74263;51.058;17.040;2024-03-07T09:36:21;34.00;;;17.77;;
63350;SDS011;74263;51.058;17.040;2024-03-07T09:41:23;36.17;;;17.75;;
63350;SDS011;74263;51.058;17.040;2024-03-07T09:46:25;35.08;;;18.95;;
63350;SDS011;74263;51.058;17.040;2024-03-07T09:51:27;37.67;;;18.67;;
63350;SDS011;74263;51.058;17.040;2024-03-07T09:56:29;38.42;;;18.27;;
63350;SDS011;74263;51.058;17.040;2024-03-07T10:01:32;37.35;;;18.02;;
63350;SDS011;74263;51.058;17.040;2024-03-07T10:06:34;37.45;;;18.95;;
63350;SDS011;74263;51.058;17.040;2024-03-07T10:11:36;34.63;;;18.88;;
63350;SDS011;74263;51.058;17.040;2024-03-07T10:16:38;34.27;;;17.70;;
63350;SDS011;74263;51.058;17.040;2024-03-07T10:21:40;36.75;;;19.27;;
63350;SDS011;74263;51.058;17.040;2024-03-07T10:26:42;41.42;;;20.55;;
63350;SDS011;74263;51.058;17.040;2024-03-07T10:31:44;33.97;;;18.08;;
63350;SDS011;74263;51.058;17.040;2024-03-07T10:37:01;33.25;;;16.95;;
63350;SDS011;74263;51.058;17.040;2024-03-07T10:42:03;35.33;;;15.90;;
63350;SDS011;74263;51.058;17.040;2024-03-07T10:47:05;33.90;;;18.00;;
63350;SDS011;74263;51.058;17.040;2024-03-07T10:52:13;31.97;;;17.43;;
63350;SDS011;74263;51.058;17.040;2024-03-07T10:57:59;36.05;;;18.65;;
63350;SDS011;74263;51.058;17.040;2024-03-07T11:02:44;33.28;;;18.10;;
63350;SDS011;74263;51.058;17.040;2024-03-07T11:07:47;31.58;;;17.63;;
63350;SDS011;74263;51.058;17.040;2024-03-07T11:12:49;28.70;;;16.30;;
63350;SDS011;74263;51.058;17.040;2024-03-07T11:17:51;35.20;;;19.13;;
63350;SDS011;74263;51.058;17.040;2024-03-07T11:22:53;34.75;;;18.58;;
63350;SDS011;74263;51.058;17.040;2024-03-07T11:27:56;32.67;;;16.75;;
63350;SDS011;74263;51.058;17.040;2024-03-07T11:33:01;45.40;;;18.77;;
63350;SDS011;74263;51.058;17.040;2024-03-07T11:38:06;33.60;;;17.95;;
63350;SDS011;74263;51.058;17.040;2024-03-07T11:43:08;29.08;;;16.45;;
63350;SDS011;74263;51.058;17.040;2024-03-07T11:48:10;32.75;;;17.98;;
63350;SDS011;74263;51.058;17.040;2024-03-07T11:53:12;34.33;;;17.73;;
63350;SDS011;74263;51.058;17.040;2024-03-07T11:58:14;34.28;;;16.25;;
63350;SDS011;74263;51.058;17.040;2024-03-07T12:03:16;31.33;;;16.27;;
63350;SDS011;74263;51.058;17.040;2024-03-07T12:08:19;34.35;;;15.25;;
63350;SDS011;74263;51.058;17.040;2024-03-07T12:13:20;31.23;;;15.95;;
63350;SDS011;74263;51.058;17.040;2024-03-07T12:18:22;31.10;;;16.45;;
63350;SDS011;74263;51.058;17.040;2024-03-07T12:23:25;32.35;;;15.63;;
63350;SDS011;74263;51.058;17.040;2024-03-07T12:28:26;31.95;;;15.98;;
63350;SDS011;74263;51.058;17.040;2024-03-07T12:33:31;29.00;;;15.43;;
63350;SDS011;74263;51.058;17.040;2024-03-07T12:38:33;28.88;;;16.05;;
63350;SDS011;74263;51.058;17.040;2024-03-07T12:43:35;29.92;;;16.60;;
63350;SDS011;74263;51.058;17.040;2024-03-07T12:48:37;28.57;;;15.17;;
63350;SDS011;74263;51.058;17.040;2024-03-07T12:53:39;28.88;;;15.75;;
63350;SDS011;74263;51.058;17.040;2024-03-07T12:58:41;26.77;;;14.10;;
63350;SDS011;74263;51.058;17.040;2024-03-07T13:03:47;33.53;;;14.15;;
63350;SDS011;74263;51.058;17.040;2024-03-07T13:08:49;26.03;;;14.33;;
63350;SDS011;74263;51.058;17.040;2024-03-07T13:13:51;30.27;;;15.15;;
63350;SDS011;74263;51.058;17.040;2024-03-07T13:18:55;26.85;;;14.48;;
63350;SDS011;74263;51.058;17.040;2024-03-07T13:23:57;25.23;;;13.95;;
63350;SDS011;74263;51.058;17.040;2024-03-07T13:28:59;27.07;;;14.27;;
63350;SDS011;74263;51.058;17.040;2024-03-07T13:34:01;32.22;;;14.93;;
63350;SDS011;74263;51.058;17.040;2024-03-07T13:39:04;32.60;;;15.38;;
63350;SDS011;74263;51.058;17.040;2024-03-07T13:44:09;29.25;;;14.45;;
63350;SDS011;74263;51.058;17.040;2024-03-07T13:49:11;23.93;;;13.07;;
63350;SDS011;74263;51.058;17.040;2024-03-07T13:54:13;22.50;;;12.57;;
63350;SDS011;74263;51.058;17.040;2024-03-07T14:10:00;24.42;;;13.82;;
63350;SDS011;74263;51.058;17.040;2024-03-07T14:30:51;25.88;;;13.45;;
63350;SDS011;74263;51.058;17.040;2024-03-07T14:36:05;25.13;;;13.77;;
63350;SDS011;74263;51.058;17.040;2024-03-07T14:41:08;25.23;;;14.05;;
63350;SDS011;74263;51.058;17.040;2024-03-07T14:46:11;28.95;;;13.45;;
63350;SDS011;74263;51.058;17.040;2024-03-07T14:51:13;27.88;;;14.98;;
63350;SDS011;74263;51.058;17.040;2024-03-07T15:01:17;32.58;;;16.60;;
63350;SDS011;74263;51.058;17.040;2024-03-07T15:06:19;28.98;;;14.63;;
63350;SDS011;74263;51.058;17.040;2024-03-07T15:11:22;31.65;;;16.08;;
63350;SDS011;74263;51.058;17.040;2024-03-07T15:16:24;28.02;;;16.33;;
63350;SDS011;74263;51.058;17.040;2024-03-07T15:21:36;27.42;;;15.95;;
63350;SDS011;74263;51.058;17.040;2024-03-07T15:26:38;28.90;;;15.87;;
63350;SDS011;74263;51.058;17.040;2024-03-07T15:31:40;26.50;;;13.55;;
63350;SDS011;74263;51.058;17.040;2024-03-07T15:36:42;26.35;;;13.80;;
63350;SDS011;74263;51.058;17.040;2024-03-07T15:41:44;28.83;;;15.63;;
63350;SDS011;74263;51.058;17.040;2024-03-07T15:46:45;29.40;;;14.35;;
63350;SDS011;74263;51.058;17.040;2024-03-07T15:51:47;28.42;;;14.55;;
63350;SDS011;74263;51.058;17.040;2024-03-07T15:56:49;31.35;;;14.25;;
63350;SDS011;74263;51.058;17.040;2024-03-07T16:01:51;26.23;;;13.07;;
63350;SDS011;74263;51.058;17.040;2024-03-07T16:06:52;26.50;;;13.57;;
63350;SDS011;74263;51.058;17.040;2024-03-07T16:11:57;31.25;;;14.63;;
63350;SDS011;74263;51.058;17.040;2024-03-07T16:16:59;34.25;;;16.10;;
63350;SDS011;74263;51.058;17.040;2024-03-07T16:22:02;28.77;;;15.70;;
63350;SDS011;74263;51.058;17.040;2024-03-07T16:27:05;28.45;;;15.75;;
63350;SDS011;74263;51.058;17.040;2024-03-07T16:32:07;33.43;;;15.73;;
63350;SDS011;74263;51.058;17.040;2024-03-07T16:37:09;30.75;;;15.70;;
63350;SDS011;74263;51.058;17.040;2024-03-07T16:42:11;30.43;;;15.47;;
63350;SDS011;74263;51.058;17.040;2024-03-07T16:47:12;34.38;;;17.45;;
63350;SDS011;74263;51.058;17.040;2024-03-07T16:52:14;34.92;;;16.65;;
63350;SDS011;74263;51.058;17.040;2024-03-07T16:57:17;36.50;;;18.90;;
63350;SDS011;74263;51.058;17.040;2024-03-07T17:02:19;34.00;;;17.53;;
63350;SDS011;74263;51.058;17.040;2024-03-07T17:07:22;33.47;;;17.27;;
63350;SDS011;74263;51.058;17.040;2024-03-07T17:12:25;37.00;;;18.52;;
63350;SDS011;74263;51.058;17.040;2024-03-07T17:17:27;33.15;;;18.52;;
63350;SDS011;74263;51.058;17.040;2024-03-07T17:22:29;35.07;;;19.70;;
63350;SDS011;74263;51.058;17.040;2024-03-07T17:27:31;34.58;;;17.85;;
63350;SDS011;74263;51.058;17.040;2024-03-07T17:32:33;36.22;;;19.48;;
63350;SDS011;74263;51.058;17.040;2024-03-07T17:42:37;34.00;;;18.05;;
63350;SDS011;74263;51.058;17.040;2024-03-07T17:47:38;42.63;;;20.33;;
63350;SDS011;74263;51.058;17.040;2024-03-07T17:52:40;38.63;;;20.08;;
63350;SDS011;74263;51.058;17.040;2024-03-07T17:57:42;45.53;;;21.90;;
63350;SDS011;74263;51.058;17.040;2024-03-07T18:02:44;44.58;;;22.30;;
63350;SDS011;74263;51.058;17.040;2024-03-07T18:07:46;38.88;;;19.95;;
63350;SDS011;74263;51.058;17.040;2024-03-07T18:12:49;42.03;;;21.40;;
63350;SDS011;74263;51.058;17.040;2024-03-07T18:17:51;40.35;;;22.17;;
63350;SDS011;74263;51.058;17.040;2024-03-07T18:22:56;38.50;;;21.42;;
63350;SDS011;74263;51.058;17.040;2024-03-07T18:27:58;42.10;;;20.90;;
63350;SDS011;74263;51.058;17.040;2024-03-07T18:33:00;44.35;;;21.38;;
63350;SDS011;74263;51.058;17.040;2024-03-07T18:38:02;39.25;;;21.60;;
63350;SDS011;74263;51.058;17.040;2024-03-07T18:43:05;38.92;;;21.20;;
63350;SDS011;74263;51.058;17.040;2024-03-07T18:48:07;46.10;;;21.10;;
63350;SDS011;74263;51.058;17.040;2024-03-07T18:58:11;41.50;;;21.00;;
63350;SDS011;74263;51.058;17.040;2024-03-07T19:03:13;39.75;;;20.83;;
63350;SDS011;74263;51.058;17.040;2024-03-07T19:08:15;40.30;;;20.87;;
63350;SDS011;74263;51.058;17.040;2024-03-07T19:13:18;37.08;;;20.60;;
63350;SDS011;74263;51.058;17.040;2024-03-07T19:18:20;41.45;;;21.98;;
63350;SDS011;74263;51.058;17.040;2024-03-07T19:23:22;39.83;;;20.47;;
63350;SDS011;74263;51.058;17.040;2024-03-07T19:28:24;39.30;;;21.50;;
63350;SDS011;74263;51.058;17.040;2024-03-07T19:33:26;42.42;;;21.73;;
63350;SDS011;74263;51.058;17.040;2024-03-07T19:38:28;43.60;;;22.70;;
63350;SDS011;74263;51.058;17.040;2024-03-07T19:43:31;44.35;;;23.00;;
63350;SDS011;74263;51.058;17.040;2024-03-07T19:48:33;46.92;;;24.73;;
63350;SDS011;74263;51.058;17.040;2024-03-07T19:53:36;47.65;;;23.00;;
63350;SDS011;74263;51.058;17.040;2024-03-07T20:03:39;52.08;;;25.33;;
63350;SDS011;74263;51.058;17.040;2024-03-07T20:08:41;46.93;;;25.37;;
63350;SDS011;74263;51.058;17.040;2024-03-07T20:13:44;47.70;;;24.53;;
63350;SDS011;74263;51.058;17.040;2024-03-07T20:18:45;47.07;;;23.90;;
63350;SDS011;74263;51.058;17.040;2024-03-07T20:23:48;50.25;;;24.35;;
63350;SDS011;74263;51.058;17.040;2024-03-07T20:28:50;48.10;;;26.10;;
63350;SDS011;74263;51.058;17.040;2024-03-07T20:33:52;49.90;;;24.52;;
63350;SDS011;74263;51.058;17.040;2024-03-07T20:38:54;45.73;;;24.17;;
63350;SDS011;74263;51.058;17.040;2024-03-07T20:43:56;43.08;;;24.48;;
63350;SDS011;74263;51.058;17.040;2024-03-07T20:48:58;46.07;;;24.23;;
63350;SDS011;74263;51.058;17.040;2024-03-07T20:54:00;52.05;;;26.25;;
63350;SDS011;74263;51.058;17.040;2024-03-07T20:59:02;42.83;;;23.80;;
63350;SDS011;74263;51.058;17.040;2024-03-07T21:04:05;44.25;;;23.08;;
63350;SDS011;74263;51.058;17.040;2024-03-07T21:09:07;47.97;;;23.63;;
63350;SDS011;74263;51.058;17.040;2024-03-07T21:14:08;46.30;;;22.10;;
63350;SDS011;74263;51.058;17.040;2024-03-07T21:19:10;47.72;;;23.23;;
63350;SDS011;74263;51.058;17.040;2024-03-07T21:24:12;47.65;;;23.95;;
63350;SDS011;74263;51.058;17.040;2024-03-07T21:29:14;48.78;;;24.08;;
63350;SDS011;74263;51.058;17.040;2024-03-07T21:34:16;46.80;;;22.90;;
63350;SDS011;74263;51.058;17.040;2024-03-07T21:39:18;45.33;;;22.60;;
63350;SDS011;74263;51.058;17.040;2024-03-07T21:44:19;55.30;;;25.40;;
63350;SDS011;74263;51.058;17.040;2024-03-07T21:49:21;49.67;;;23.27;;
63350;SDS011;74263;51.058;17.040;2024-03-07T21:54:23;52.35;;;24.75;;
63350;SDS011;74263;51.058;17.040;2024-03-07T21:59:25;49.73;;;24.93;;
63350;SDS011;74263;51.058;17.040;2024-03-07T22:04:27;52.50;;;26.15;;
63350;SDS011;74263;51.058;17.040;2024-03-07T22:09:28;47.83;;;24.40;;
63350;SDS011;74263;51.058;17.040;2024-03-07T22:14:30;54.25;;;26.70;;
63350;SDS011;74263;51.058;17.040;2024-03-07T22:19:32;46.20;;;23.48;;
63350;SDS011;74263;51.058;17.040;2024-03-07T22:24:34;52.05;;;24.23;;
63350;SDS011;74263;51.058;17.040;2024-03-07T22:29:35;49.72;;;24.33;;
63350;SDS011;74263;51.058;17.040;2024-03-07T22:34:40;47.50;;;24.05;;
63350;SDS011;74263;51.058;17.040;2024-03-07T22:39:43;50.30;;;25.73;;
63350;SDS011;74263;51.058;17.040;2024-03-07T22:49:46;57.33;;;25.67;;
63350;SDS011;74263;51.058;17.040;2024-03-07T22:54:48;50.33;;;24.52;;
63350;SDS011;74263;51.058;17.040;2024-03-07T22:59:49;51.72;;;25.88;;
63350;SDS011;74263;51.058;17.040;2024-03-07T23:04:51;52.22;;;25.40;;
63350;SDS011;74263;51.058;17.040;2024-03-07T23:09:53;59.05;;;26.20;;
63350;SDS011;74263;51.058;17.040;2024-03-07T23:14:55;48.97;;;25.20;;
63350;SDS011;74263;51.058;17.040;2024-03-07T23:19:57;60.08;;;28.58;;
63350;SDS011;74263;51.058;17.040;2024-03-07T23:24:59;51.47;;;25.70;;
63350;SDS011;74263;51.058;17.040;2024-03-07T23:30:00;55.78;;;26.02;;
63350;SDS011;74263;51.058;17.040;2024-03-07T23:35:02;53.63;;;25.58;;
63350;SDS011;74263;51.058;17.040;2024-03-07T23:40:04;55.70;;;26.10;;
63350;SDS011;74263;51.058;17.040;2024-03-07T23:45:06;55.70;;;26.27;;
63350;SDS011;74263;51.058;17.040;2024-03-07T23:50:09;61.03;;;26.77;;
63350;SDS011;74263;51.058;17.040;2024-03-07T23:55:11;58.60;;;26.87;;
